This is the latest recevied weather packets stored in our database for station/object VK5GR-12. If no packets are shown the sender has not sent any weather packets the latest 10 day(s).
| Time | Temp. | Humidity | Pressure | Rain* | Wind** | Luminosity | Snow |
|---|---|---|---|---|---|---|---|
| 1788066949 | 21.67° C | 47% | 1031.7 hPa | 0 mm | - | 381 W/m² | - |
| 1788066044 | 20.56° C | 49% | 1031.9 hPa | 0 mm | - | 411 W/m² | - |
| 1788065138 | 20.56° C | 50% | 1031.9 hPa | 0 mm | - | 437 W/m² | - |
| 1788064233 | 20° C | 46% | 1032.2 hPa | 0 mm | - | 463 W/m² | - |
| 1788063331 | 21.11° C | 44% | 1032.2 hPa | 0 mm | - | 482 W/m² | - |
| 1788062427 | 21.11° C | 44% | 1032.5 hPa | 0 mm | - | 505 W/m² | - |
| 1788061523 | 20° C | 44% | 1032.7 hPa | 0 mm | - | 524 W/m² | - |
| 1788060618 | 19.44° C | 47% | 1032.9 hPa | 0 mm | - | 538 W/m² | - |
| 1788059714 | 20° C | 49% | 1033 hPa | 0 mm | - | 546 W/m² | - |
| 1788058811 | 19.44° C | 49% | 1033.3 hPa | 0 mm | - | 552 W/m² | - |
| 1788057910 | 20° C | 49% | 1033.4 hPa | 0 mm | - | 554 W/m² | - |
| 1788057007 | 19.44° C | 46% | 1033.9 hPa | 0 mm | - | 553 W/m² | - |
| 1788056103 | 18.89° C | 48% | 1033.6 hPa | 0 mm | - | 549 W/m² | - |
| 1788055198 | 18.33° C | 48% | 1034 hPa | 0 mm | - | 542 W/m² | - |
| 1788054297 | 18.33° C | 50% | 1034.1 hPa | 0 mm | - | 531 W/m² | - |
| 1788053405 | 17.78° C | 51% | 1034.1 hPa | 0 mm | - | 515 W/m² | - |
| 1788052492 | 17.78° C | 53% | 1034.1 hPa | 0 mm | - | 497 W/m² | - |
| 1788051588 | 17.78° C | 52% | 1034.4 hPa | 0 mm | - | 476 W/m² | - |
| 1788050686 | 17.78° C | 52% | 1034.1 hPa | 0 mm | - | 454 W/m² | - |
| 1788049784 | 16.67° C | 56% | 1034.3 hPa | 0 mm | - | 423 W/m² | - |
| 1788048881 | 16.11° C | 59% | 1034.6 hPa | 0 mm | - | 390 W/m² | - |
| 1788047977 | 15° C | 63% | 1034.6 hPa | 0 mm | - | 357 W/m² | - |
| 1788047072 | 13.89° C | 65% | 1034.7 hPa | 0 mm | - | 323 W/m² | - |
| 1788046171 | 12.78° C | 71% | 1034.7 hPa | 0 mm | - | 287 W/m² | - |
| 1788045268 | 11.67° C | 74% | 1034.5 hPa | 0 mm | - | 246 W/m² | - |
* Rain latest hour (hover to see other rain measurements)
** Current wind speed in m/s (hover to see current wind gust speed)